sensor_id;sensor_type;location;lat;lon;timestamp;pressure;altitude;pressure_sealevel;temperature;humidity
73457;BME280;61691;53.072;6.582;2023-05-14T00:01:03;102109.56;;;13.04;70.35
73457;BME280;61691;53.072;6.582;2023-05-14T00:03:30;102100.84;;;13.02;70.30
73457;BME280;61691;53.072;6.582;2023-05-14T00:05:56;102084.63;;;12.94;69.97
73457;BME280;61691;53.072;6.582;2023-05-14T00:08:23;102088.75;;;12.98;70.03
73457;BME280;61691;53.072;6.582;2023-05-14T00:10:50;102030.63;;;12.58;70.39
73457;BME280;61691;53.072;6.582;2023-05-14T00:13:17;101993.16;;;12.39;70.37
73457;BME280;61691;53.072;6.582;2023-05-14T00:15:44;102081.47;;;12.89;70.50
73457;BME280;61691;53.072;6.582;2023-05-14T00:18:10;102049.03;;;12.72;70.30
73457;BME280;61691;53.072;6.582;2023-05-14T00:20:37;102050.16;;;12.70;70.22
73457;BME280;61691;53.072;6.582;2023-05-14T00:23:04;102079.19;;;12.84;70.71
73457;BME280;61691;53.072;6.582;2023-05-14T00:25:31;102071.31;;;12.83;70.69
73457;BME280;61691;53.072;6.582;2023-05-14T00:27:59;102044.94;;;12.68;71.01
73457;BME280;61691;53.072;6.582;2023-05-14T00:30:26;102067.06;;;12.80;70.71
73457;BME280;61691;53.072;6.582;2023-05-14T00:32:52;102065.03;;;12.84;70.96
73457;BME280;61691;53.072;6.582;2023-05-14T00:35:19;102077.97;;;12.88;71.09
73457;BME280;61691;53.072;6.582;2023-05-14T00:37:47;102050.75;;;12.73;70.62
73457;BME280;61691;53.072;6.582;2023-05-14T00:40:13;102037.44;;;12.62;70.99
73457;BME280;61691;53.072;6.582;2023-05-14T00:42:40;102061.53;;;12.83;71.27
73457;BME280;61691;53.072;6.582;2023-05-14T00:45:07;102051.38;;;12.77;70.92
73457;BME280;61691;53.072;6.582;2023-05-14T00:47:34;102059.81;;;12.82;70.99
73457;BME280;61691;53.072;6.582;2023-05-14T00:50:02;102061.88;;;12.78;70.85
73457;BME280;61691;53.072;6.582;2023-05-14T00:52:30;102047.84;;;12.76;71.19
73457;BME280;61691;53.072;6.582;2023-05-14T00:54:57;102057.53;;;12.77;71.43
73457;BME280;61691;53.072;6.582;2023-05-14T00:57:24;102047.97;;;12.75;71.00
73457;BME280;61691;53.072;6.582;2023-05-14T00:59:51;102035.25;;;12.67;71.25
73457;BME280;61691;53.072;6.582;2023-05-14T01:02:18;102021.69;;;12.59;71.03
73457;BME280;61691;53.072;6.582;2023-05-14T01:04:45;102035.47;;;12.64;71.18
73457;BME280;61691;53.072;6.582;2023-05-14T01:13:01;101975.66;;;12.13;71.26
73457;BME280;61691;53.072;6.582;2023-05-14T01:15:33;102044.31;;;12.54;71.88
73457;BME280;61691;53.072;6.582;2023-05-14T01:18:08;102016.56;;;12.34;71.96
73457;BME280;61691;53.072;6.582;2023-05-14T01:20:35;102010.53;;;12.32;71.38
73457;BME280;61691;53.072;6.582;2023-05-14T01:23:02;102034.47;;;12.43;71.84
73457;BME280;61691;53.072;6.582;2023-05-14T01:25:29;102038.84;;;12.44;71.94
73457;BME280;61691;53.072;6.582;2023-05-14T01:28:14;102039.91;;;12.41;72.18
73457;BME280;61691;53.072;6.582;2023-05-14T01:30:52;102027.72;;;12.39;72.20
73457;BME280;61691;53.072;6.582;2023-05-14T01:33:25;102009.78;;;12.30;72.43
73457;BME280;61691;53.072;6.582;2023-05-14T01:35:53;102015.72;;;12.33;71.82
73457;BME280;61691;53.072;6.582;2023-05-14T01:38:20;102018.25;;;12.35;72.32
73457;BME280;61691;53.072;6.582;2023-05-14T01:40:49;102018.88;;;12.38;71.94
73457;BME280;61691;53.072;6.582;2023-05-14T01:43:16;102007.13;;;12.30;72.32
73457;BME280;61691;53.072;6.582;2023-05-14T01:45:43;102016.81;;;12.31;72.16
73457;BME280;61691;53.072;6.582;2023-05-14T01:48:09;102016.19;;;12.27;72.50
73457;BME280;61691;53.072;6.582;2023-05-14T01:50:36;101995.59;;;12.18;72.76
73457;BME280;61691;53.072;6.582;2023-05-14T01:53:03;102003.84;;;12.26;72.64
73457;BME280;61691;53.072;6.582;2023-05-14T01:55:30;101934.41;;;11.85;72.87
73457;BME280;61691;53.072;6.582;2023-05-14T01:57:56;101978.56;;;12.10;72.70
73457;BME280;61691;53.072;6.582;2023-05-14T02:00:23;101997.56;;;12.16;73.08
73457;BME280;61691;53.072;6.582;2023-05-14T02:02:53;102004.91;;;12.13;72.77
73457;BME280;61691;53.072;6.582;2023-05-14T02:05:19;101982.66;;;12.02;73.12
73457;BME280;61691;53.072;6.582;2023-05-14T02:07:46;101980.00;;;12.02;73.39
73457;BME280;61691;53.072;6.582;2023-05-14T02:10:13;101988.22;;;12.11;73.65
73457;BME280;61691;53.072;6.582;2023-05-14T02:12:39;101952.44;;;11.92;73.68
73457;BME280;61691;53.072;6.582;2023-05-14T02:15:07;101995.00;;;12.15;73.46
73457;BME280;61691;53.072;6.582;2023-05-14T02:17:36;101994.63;;;12.08;73.46
73457;BME280;61691;53.072;6.582;2023-05-14T02:20:03;101977.78;;;11.96;73.40
73457;BME280;61691;53.072;6.582;2023-05-14T02:22:30;101990.00;;;11.99;73.73
73457;BME280;61691;53.072;6.582;2023-05-14T02:24:56;102003.47;;;12.09;73.77
73457;BME280;61691;53.072;6.582;2023-05-14T02:27:23;101978.25;;;11.90;73.83
73457;BME280;61691;53.072;6.582;2023-05-14T02:29:50;101985.06;;;11.94;73.64
73457;BME280;61691;53.072;6.582;2023-05-14T02:32:17;101984.41;;;11.91;74.12
73457;BME280;61691;53.072;6.582;2023-05-14T02:34:43;101952.53;;;11.67;74.20
73457;BME280;61691;53.072;6.582;2023-05-14T02:37:10;101938.97;;;11.59;74.31
73457;BME280;61691;53.072;6.582;2023-05-14T02:39:37;101970.97;;;11.81;74.04
73457;BME280;61691;53.072;6.582;2023-05-14T02:42:03;101915.78;;;11.50;74.24
73457;BME280;61691;53.072;6.582;2023-05-14T02:44:30;101964.22;;;11.77;74.61
73457;BME280;61691;53.072;6.582;2023-05-14T02:46:57;101977.66;;;11.87;74.59
73457;BME280;61691;53.072;6.582;2023-05-14T02:49:24;101960.81;;;11.75;74.80
73457;BME280;61691;53.072;6.582;2023-05-14T02:51:51;101977.75;;;11.85;74.79
73457;BME280;61691;53.072;6.582;2023-05-14T02:54:19;101975.84;;;11.87;74.94
73457;BME280;61691;53.072;6.582;2023-05-14T02:56:50;101917.91;;;11.45;75.04
73457;BME280;61691;53.072;6.582;2023-05-14T02:59:16;101972.66;;;11.82;75.04
73457;BME280;61691;53.072;6.582;2023-05-14T03:01:43;101962.50;;;11.76;74.73
73457;BME280;61691;53.072;6.582;2023-05-14T03:04:11;101952.91;;;11.74;74.72
73457;BME280;61691;53.072;6.582;2023-05-14T03:06:37;101955.03;;;11.81;74.94
73457;BME280;61691;53.072;6.582;2023-05-14T03:09:04;101941.44;;;11.73;74.71
73457;BME280;61691;53.072;6.582;2023-05-14T03:11:31;101958.22;;;11.86;74.68
73457;BME280;61691;53.072;6.582;2023-05-14T03:13:57;101960.13;;;11.84;74.84
73457;BME280;61691;53.072;6.582;2023-05-14T03:16:24;101960.88;;;11.86;74.93
73457;BME280;61691;53.072;6.582;2023-05-14T03:18:51;101930.63;;;11.76;75.25
73457;BME280;61691;53.072;6.582;2023-05-14T03:21:17;101956.88;;;11.92;74.97
73457;BME280;61691;53.072;6.582;2023-05-14T03:23:44;101945.88;;;11.85;75.28
73457;BME280;61691;53.072;6.582;2023-05-14T03:26:11;101938.75;;;11.86;75.44
73457;BME280;61691;53.072;6.582;2023-05-14T03:28:38;101959.44;;;11.93;75.72
73457;BME280;61691;53.072;6.582;2023-05-14T03:31:05;101945.63;;;11.88;75.11
73457;BME280;61691;53.072;6.582;2023-05-14T03:33:32;101920.00;;;11.76;75.31
73457;BME280;61691;53.072;6.582;2023-05-14T03:35:59;101936.44;;;11.81;75.72
73457;BME280;61691;53.072;6.582;2023-05-14T03:38:25;101923.84;;;11.72;75.82
73457;BME280;61691;53.072;6.582;2023-05-14T03:40:52;101913.66;;;11.66;75.46
73457;BME280;61691;53.072;6.582;2023-05-14T03:43:19;101941.25;;;11.76;75.75
73457;BME280;61691;53.072;6.582;2023-05-14T03:45:45;101936.06;;;11.75;75.67
73457;BME280;61691;53.072;6.582;2023-05-14T03:48:12;101926.94;;;11.66;76.21
73457;BME280;61691;53.072;6.582;2023-05-14T03:50:39;101926.22;;;11.64;76.28
73457;BME280;61691;53.072;6.582;2023-05-14T03:53:05;101846.81;;;11.13;75.81
73457;BME280;61691;53.072;6.582;2023-05-14T03:55:32;101915.81;;;11.61;75.98
73457;BME280;61691;53.072;6.582;2023-05-14T03:57:59;101932.44;;;11.76;76.61
73457;BME280;61691;53.072;6.582;2023-05-14T04:00:26;101933.28;;;11.76;76.00
73457;BME280;61691;53.072;6.582;2023-05-14T04:02:52;101886.94;;;11.56;76.61
73457;BME280;61691;53.072;6.582;2023-05-14T04:05:19;101902.81;;;11.69;76.47
73457;BME280;61691;53.072;6.582;2023-05-14T04:07:46;101927.41;;;11.84;76.74
73457;BME280;61691;53.072;6.582;2023-05-14T04:10:13;101933.94;;;11.91;76.59
73457;BME280;61691;53.072;6.582;2023-05-14T04:12:39;101947.28;;;12.02;76.79
73457;BME280;61691;53.072;6.582;2023-05-14T04:15:06;101942.53;;;12.06;76.80
73457;BME280;61691;53.072;6.582;2023-05-14T04:17:33;101939.66;;;12.09;76.58
73457;BME280;61691;53.072;6.582;2023-05-14T04:20:00;101947.91;;;12.17;76.37
73457;BME280;61691;53.072;6.582;2023-05-14T04:22:27;101924.44;;;12.11;76.70
73457;BME280;61691;53.072;6.582;2023-05-14T04:24:53;101930.47;;;12.13;76.71
73457;BME280;61691;53.072;6.582;2023-05-14T04:27:20;101931.31;;;12.13;76.67
73457;BME280;61691;53.072;6.582;2023-05-14T04:29:48;101943.81;;;12.24;76.48
73457;BME280;61691;53.072;6.582;2023-05-14T04:32:15;101949.81;;;12.26;76.21
73457;BME280;61691;53.072;6.582;2023-05-14T04:34:43;101959.28;;;12.30;76.49
73457;BME280;61691;53.072;6.582;2023-05-14T04:37:09;101953.22;;;12.28;76.29
73457;BME280;61691;53.072;6.582;2023-05-14T04:39:36;101940.91;;;12.27;76.31
73457;BME280;61691;53.072;6.582;2023-05-14T04:42:04;101962.69;;;12.43;76.58
73457;BME280;61691;53.072;6.582;2023-05-14T04:44:35;101937.75;;;12.33;76.52
73457;BME280;61691;53.072;6.582;2023-05-14T04:47:03;101947.34;;;12.47;76.46
73457;BME280;61691;53.072;6.582;2023-05-14T04:49:30;101949.63;;;12.51;76.18
73457;BME280;61691;53.072;6.582;2023-05-14T04:51:57;101961.75;;;12.55;75.89
73457;BME280;61691;53.072;6.582;2023-05-14T04:54:24;101922.31;;;12.38;75.81
73457;BME280;61691;53.072;6.582;2023-05-14T04:56:50;101946.25;;;12.49;76.19
73457;BME280;61691;53.072;6.582;2023-05-14T04:59:17;101960.63;;;12.58;76.01
73457;BME280;61691;53.072;6.582;2023-05-14T05:01:43;101948.78;;;12.51;76.08
73457;BME280;61691;53.072;6.582;2023-05-14T05:04:11;101963.06;;;12.61;76.37
73457;BME280;61691;53.072;6.582;2023-05-14T05:06:38;101958.09;;;12.67;76.30
73457;BME280;61691;53.072;6.582;2023-05-14T05:09:05;101893.78;;;12.40;76.04
73457;BME280;61691;53.072;6.582;2023-05-14T05:11:31;101967.16;;;12.87;75.79
73457;BME280;61691;53.072;6.582;2023-05-14T05:13:58;101938.75;;;12.88;75.62
73457;BME280;61691;53.072;6.582;2023-05-14T05:16:25;101946.94;;;13.07;75.80
73457;BME280;61691;53.072;6.582;2023-05-14T05:18:51;101949.59;;;13.18;75.71
73457;BME280;61691;53.072;6.582;2023-05-14T05:21:18;101928.31;;;13.18;75.50
73457;BME280;61691;53.072;6.582;2023-05-14T05:23:45;101931.41;;;13.34;75.78
73457;BME280;61691;53.072;6.582;2023-05-14T05:26:12;101940.28;;;13.67;76.10
73457;BME280;61691;53.072;6.582;2023-05-14T05:28:38;101940.03;;;14.11;75.67
73457;BME280;61691;53.072;6.582;2023-05-14T05:31:05;101943.94;;;14.49;75.26
73457;BME280;61691;53.072;6.582;2023-05-14T05:33:33;101947.75;;;14.86;74.96
73457;BME280;61691;53.072;6.582;2023-05-14T05:36:00;101925.88;;;15.02;73.94
73457;BME280;61691;53.072;6.582;2023-05-14T05:38:27;101956.59;;;15.46;73.57
73457;BME280;61691;53.072;6.582;2023-05-14T05:40:53;101948.91;;;15.62;72.82
73457;BME280;61691;53.072;6.582;2023-05-14T05:43:20;101942.28;;;15.66;72.40
73457;BME280;61691;53.072;6.582;2023-05-14T05:45:47;101928.91;;;15.66;71.98
73457;BME280;61691;53.072;6.582;2023-05-14T05:48:14;101943.41;;;15.83;71.73
73457;BME280;61691;53.072;6.582;2023-05-14T05:50:40;101935.38;;;15.93;71.10
73457;BME280;61691;53.072;6.582;2023-05-14T05:53:09;101915.53;;;15.95;70.19
73457;BME280;61691;53.072;6.582;2023-05-14T05:55:36;101957.72;;;16.30;70.19
73457;BME280;61691;53.072;6.582;2023-05-14T05:58:03;101956.53;;;16.42;69.42
73457;BME280;61691;53.072;6.582;2023-05-14T06:00:30;101947.06;;;16.48;68.80
73457;BME280;61691;53.072;6.582;2023-05-14T06:02:56;101951.97;;;16.72;69.09
73457;BME280;61691;53.072;6.582;2023-05-14T06:05:23;101959.06;;;17.18;68.98
73457;BME280;61691;53.072;6.582;2023-05-14T06:07:50;101960.97;;;17.70;68.50
73457;BME280;61691;53.072;6.582;2023-05-14T06:10:19;101950.03;;;18.25;67.48
73457;BME280;61691;53.072;6.582;2023-05-14T06:12:46;101943.69;;;18.86;66.47
73457;BME280;61691;53.072;6.582;2023-05-14T06:15:13;101955.13;;;19.46;65.02
73457;BME280;61691;53.072;6.582;2023-05-14T06:17:39;101944.41;;;20.11;63.84
73457;BME280;61691;53.072;6.582;2023-05-14T06:20:07;101963.44;;;20.89;61.50
73457;BME280;61691;53.072;6.582;2023-05-14T06:22:34;101953.13;;;21.32;59.43
73457;BME280;61691;53.072;6.582;2023-05-14T06:25:01;101958.66;;;21.61;57.54
73457;BME280;61691;53.072;6.582;2023-05-14T06:27:27;101961.06;;;21.79;56.67
73457;BME280;61691;53.072;6.582;2023-05-14T06:29:54;101960.09;;;21.49;54.17
73457;BME280;61691;53.072;6.582;2023-05-14T06:32:21;101965.41;;;20.95;53.98
73457;BME280;61691;53.072;6.582;2023-05-14T06:34:48;101948.78;;;20.36;54.22
73457;BME280;61691;53.072;6.582;2023-05-14T06:37:14;101940.69;;;19.96;54.58
73457;BME280;61691;53.072;6.582;2023-05-14T06:39:41;101956.81;;;19.55;54.55
73457;BME280;61691;53.072;6.582;2023-05-14T06:42:16;101950.03;;;19.35;55.08
73457;BME280;61691;53.072;6.582;2023-05-14T06:44:43;101969.53;;;19.37;55.53
73457;BME280;61691;53.072;6.582;2023-05-14T06:47:10;101954.03;;;19.23;55.79
73457;BME280;61691;53.072;6.582;2023-05-14T06:49:37;101960.25;;;19.15;55.75
73457;BME280;61691;53.072;6.582;2023-05-14T06:52:04;101950.34;;;19.16;56.29
73457;BME280;61691;53.072;6.582;2023-05-14T06:54:31;101937.22;;;19.13;56.00
73457;BME280;61691;53.072;6.582;2023-05-14T06:56:57;101955.41;;;19.35;55.82
73457;BME280;61691;53.072;6.582;2023-05-14T06:59:24;101939.28;;;19.43;55.92
73457;BME280;61691;53.072;6.582;2023-05-14T07:01:51;101935.28;;;19.55;56.32
73457;BME280;61691;53.072;6.582;2023-05-14T07:04:18;101933.31;;;19.74;55.29
73457;BME280;61691;53.072;6.582;2023-05-14T07:06:45;101933.31;;;19.82;55.22
73457;BME280;61691;53.072;6.582;2023-05-14T07:09:11;101926.25;;;19.73;54.52
73457;BME280;61691;53.072;6.582;2023-05-14T07:11:38;101935.47;;;19.78;54.33
73457;BME280;61691;53.072;6.582;2023-05-14T07:14:05;101929.59;;;19.75;54.46
73457;BME280;61691;53.072;6.582;2023-05-14T07:16:31;101924.72;;;19.94;54.69
73457;BME280;61691;53.072;6.582;2023-05-14T07:18:58;101924.53;;;20.28;54.01
73457;BME280;61691;53.072;6.582;2023-05-14T07:21:25;101918.63;;;20.25;52.65
73457;BME280;61691;53.072;6.582;2023-05-14T07:23:51;101929.06;;;20.44;53.14
73457;BME280;61691;53.072;6.582;2023-05-14T07:26:18;101914.63;;;20.76;52.40
73457;BME280;61691;53.072;6.582;2023-05-14T07:28:45;101934.28;;;21.23;52.03
73457;BME280;61691;53.072;6.582;2023-05-14T07:31:11;101924.03;;;21.50;50.42
73457;BME280;61691;53.072;6.582;2023-05-14T07:33:38;101921.09;;;21.74;50.70
73457;BME280;61691;53.072;6.582;2023-05-14T07:36:05;101891.06;;;22.15;50.37
73457;BME280;61691;53.072;6.582;2023-05-14T07:38:32;101930.94;;;22.71;48.15
73457;BME280;61691;53.072;6.582;2023-05-14T07:40:59;101907.88;;;22.84;47.77
73457;BME280;61691;53.072;6.582;2023-05-14T07:43:26;101916.91;;;22.91;46.25
73457;BME280;61691;53.072;6.582;2023-05-14T07:45:52;101910.28;;;22.49;45.49
73457;BME280;61691;53.072;6.582;2023-05-14T07:48:19;101914.16;;;22.03;46.05
73457;BME280;61691;53.072;6.582;2023-05-14T07:50:47;101930.72;;;21.77;46.32
73457;BME280;61691;53.072;6.582;2023-05-14T07:53:14;101923.53;;;21.46;47.18
73457;BME280;61691;53.072;6.582;2023-05-14T07:55:41;101922.69;;;21.46;47.55
73457;BME280;61691;53.072;6.582;2023-05-14T07:58:09;101938.69;;;21.47;46.97
73457;BME280;61691;53.072;6.582;2023-05-14T08:00:36;101929.41;;;21.27;47.29
73457;BME280;61691;53.072;6.582;2023-05-14T08:03:03;101940.72;;;21.14;47.29
73457;BME280;61691;53.072;6.582;2023-05-14T08:05:30;101944.47;;;21.05;47.82
73457;BME280;61691;53.072;6.582;2023-05-14T08:07:58;101907.06;;;20.71;48.05
73457;BME280;61691;53.072;6.582;2023-05-14T08:10:25;101905.09;;;20.57;48.58
73457;BME280;61691;53.072;6.582;2023-05-14T08:12:52;101929.06;;;20.44;49.10
73457;BME280;61691;53.072;6.582;2023-05-14T08:15:19;101932.25;;;20.15;49.48
73457;BME280;61691;53.072;6.582;2023-05-14T08:17:46;101877.13;;;19.62;50.05
73457;BME280;61691;53.072;6.582;2023-05-14T08:20:12;101898.84;;;19.69;50.80
73457;BME280;61691;53.072;6.582;2023-05-14T08:22:39;101914.81;;;19.79;51.63
73457;BME280;61691;53.072;6.582;2023-05-14T08:25:06;101909.25;;;19.72;51.98
73457;BME280;61691;53.072;6.582;2023-05-14T08:27:33;101922.53;;;19.74;51.58
73457;BME280;61691;53.072;6.582;2023-05-14T08:30:00;101934.84;;;19.84;52.24
73457;BME280;61691;53.072;6.582;2023-05-14T08:32:27;101921.88;;;19.88;52.47
73457;BME280;61691;53.072;6.582;2023-05-14T08:34:53;101921.53;;;19.83;52.27
73457;BME280;61691;53.072;6.582;2023-05-14T08:37:20;101929.25;;;19.86;52.72
73457;BME280;61691;53.072;6.582;2023-05-14T08:39:47;101917.16;;;19.90;52.81
73457;BME280;61691;53.072;6.582;2023-05-14T08:42:15;101911.94;;;19.96;53.19
73457;BME280;61691;53.072;6.582;2023-05-14T08:44:52;101917.81;;;20.00;53.03
73457;BME280;61691;53.072;6.582;2023-05-14T08:47:22;101914.31;;;19.99;52.64
73457;BME280;61691;53.072;6.582;2023-05-14T08:50:00;101917.66;;;19.85;52.17
73457;BME280;61691;53.072;6.582;2023-05-14T08:52:30;101923.38;;;19.74;52.25
73457;BME280;61691;53.072;6.582;2023-05-14T08:54:58;101911.28;;;19.54;52.72
73457;BME280;61691;53.072;6.582;2023-05-14T08:57:27;101904.00;;;19.38;52.47
73457;BME280;61691;53.072;6.582;2023-05-14T08:59:55;101912.75;;;19.32;52.67
73457;BME280;61691;53.072;6.582;2023-05-14T09:02:24;101926.84;;;19.42;53.63
73457;BME280;61691;53.072;6.582;2023-05-14T09:04:54;101922.16;;;19.44;53.65
73457;BME280;61691;53.072;6.582;2023-05-14T09:07:21;101927.53;;;19.36;53.58
73457;BME280;61691;53.072;6.582;2023-05-14T09:09:48;101909.22;;;19.31;54.07
73457;BME280;61691;53.072;6.582;2023-05-14T09:12:15;101921.19;;;19.53;54.37
73457;BME280;61691;53.072;6.582;2023-05-14T09:14:43;101917.16;;;19.74;54.25
73457;BME280;61691;53.072;6.582;2023-05-14T09:17:09;101896.63;;;19.64;54.10
73457;BME280;61691;53.072;6.582;2023-05-14T09:19:41;101921.88;;;19.80;54.12
73457;BME280;61691;53.072;6.582;2023-05-14T09:22:11;101913.13;;;19.86;54.07
73457;BME280;61691;53.072;6.582;2023-05-14T09:24:39;101911.09;;;19.96;54.35
73457;BME280;61691;53.072;6.582;2023-05-14T09:27:08;101877.50;;;19.76;53.87
73457;BME280;61691;53.072;6.582;2023-05-14T09:29:35;101902.88;;;19.97;53.40
73457;BME280;61691;53.072;6.582;2023-05-14T09:32:02;101894.63;;;19.99;53.52
73457;BME280;61691;53.072;6.582;2023-05-14T09:34:32;101903.69;;;19.98;52.45
73457;BME280;61691;53.072;6.582;2023-05-14T09:37:04;101906.88;;;19.93;52.33
73457;BME280;61691;53.072;6.582;2023-05-14T09:39:31;101837.13;;;19.51;51.87
73457;BME280;61691;53.072;6.582;2023-05-14T09:41:58;101890.41;;;19.80;51.19
73457;BME280;61691;53.072;6.582;2023-05-14T09:44:26;101896.66;;;19.81;51.20
73457;BME280;61691;53.072;6.582;2023-05-14T09:46:53;101888.72;;;19.71;51.45
73457;BME280;61691;53.072;6.582;2023-05-14T09:49:20;101883.88;;;19.75;52.05
73457;BME280;61691;53.072;6.582;2023-05-14T09:51:50;101882.19;;;19.90;51.74
73457;BME280;61691;53.072;6.582;2023-05-14T09:54:16;101875.94;;;19.97;51.68
73457;BME280;61691;53.072;6.582;2023-05-14T09:56:43;101889.84;;;20.17;51.10
73457;BME280;61691;53.072;6.582;2023-05-14T09:59:10;101862.47;;;20.05;50.94
73457;BME280;61691;53.072;6.582;2023-05-14T10:01:37;101866.63;;;20.16;50.27
73457;BME280;61691;53.072;6.582;2023-05-14T10:04:06;101879.22;;;20.32;50.49
73457;BME280;61691;53.072;6.582;2023-05-14T10:06:37;101863.44;;;20.29;49.87
73457;BME280;61691;53.072;6.582;2023-05-14T10:09:11;101861.91;;;20.34;49.56
73457;BME280;61691;53.072;6.582;2023-05-14T10:11:41;101834.28;;;20.32;49.55
73457;BME280;61691;53.072;6.582;2023-05-14T10:16:55;101852.41;;;20.55;49.26
73457;BME280;61691;53.072;6.582;2023-05-14T10:19:25;101873.88;;;20.71;48.96
73457;BME280;61691;53.072;6.582;2023-05-14T10:21:55;101848.28;;;20.75;49.20
73457;BME280;61691;53.072;6.582;2023-05-14T10:24:22;101876.72;;;21.08;49.38
73457;BME280;61691;53.072;6.582;2023-05-14T10:26:50;101859.53;;;21.09;47.11
73457;BME280;61691;53.072;6.582;2023-05-14T10:29:17;101849.19;;;20.90;47.14
73457;BME280;61691;53.072;6.582;2023-05-14T10:31:48;101859.91;;;20.98;47.37
73457;BME280;61691;53.072;6.582;2023-05-14T10:34:34;101863.91;;;21.10;47.63
73457;BME280;61691;53.072;6.582;2023-05-14T10:37:14;101836.09;;;21.10;47.40
73457;BME280;61691;53.072;6.582;2023-05-14T10:42:10;101824.19;;;21.04;46.90
73457;BME280;61691;53.072;6.582;2023-05-14T10:44:44;101848.84;;;21.24;47.31
73457;BME280;61691;53.072;6.582;2023-05-14T10:47:13;101851.34;;;21.26;47.15
73457;BME280;61691;53.072;6.582;2023-05-14T10:49:41;101837.38;;;21.22;47.52
73457;BME280;61691;53.072;6.582;2023-05-14T10:52:10;101829.28;;;21.22;47.68
73457;BME280;61691;53.072;6.582;2023-05-14T10:54:37;101829.78;;;21.26;48.30
73457;BME280;61691;53.072;6.582;2023-05-14T10:57:09;101829.41;;;21.29;48.13
73457;BME280;61691;53.072;6.582;2023-05-14T10:59:40;101837.09;;;21.40;48.43
73457;BME280;61691;53.072;6.582;2023-05-14T11:02:18;101825.56;;;21.46;46.86
73457;BME280;61691;53.072;6.582;2023-05-14T11:07:35;101809.03;;;21.49;47.25
73457;BME280;61691;53.072;6.582;2023-05-14T11:10:11;101830.66;;;21.78;46.75
73457;BME280;61691;53.072;6.582;2023-05-14T11:12:40;101801.59;;;21.66;46.10
73457;BME280;61691;53.072;6.582;2023-05-14T11:15:13;101832.13;;;21.66;45.47
73457;BME280;61691;53.072;6.582;2023-05-14T11:17:42;101825.50;;;21.54;44.85
73457;BME280;61691;53.072;6.582;2023-05-14T11:20:09;101820.16;;;21.46;44.54
73457;BME280;61691;53.072;6.582;2023-05-14T11:22:37;101826.69;;;21.51;45.14
73457;BME280;61691;53.072;6.582;2023-05-14T11:25:05;101807.56;;;21.61;44.20
73457;BME280;61691;53.072;6.582;2023-05-14T11:27:38;101810.84;;;21.71;43.78
73457;BME280;61691;53.072;6.582;2023-05-14T11:30:15;101785.81;;;21.77;43.06
73457;BME280;61691;53.072;6.582;2023-05-14T11:32:44;101804.34;;;21.95;41.97
73457;BME280;61691;53.072;6.582;2023-05-14T11:35:12;101775.84;;;21.78;40.10
73457;BME280;61691;53.072;6.582;2023-05-14T11:37:39;101794.09;;;21.90;39.82
73457;BME280;61691;53.072;6.582;2023-05-14T11:40:08;101804.66;;;22.15;39.13
73457;BME280;61691;53.072;6.582;2023-05-14T11:42:37;101775.50;;;22.25;38.72
73457;BME280;61691;53.072;6.582;2023-05-14T11:45:05;101762.44;;;22.28;37.36
73457;BME280;61691;53.072;6.582;2023-05-14T11:47:32;101788.22;;;22.46;36.37
73457;BME280;61691;53.072;6.582;2023-05-14T11:49:59;101790.53;;;22.49;36.37
73457;BME280;61691;53.072;6.582;2023-05-14T11:52:26;101789.69;;;22.48;35.50
73457;BME280;61691;53.072;6.582;2023-05-14T11:54:53;101772.88;;;22.31;33.71
73457;BME280;61691;53.072;6.582;2023-05-14T11:57:21;101776.53;;;22.24;33.54
73457;BME280;61691;53.072;6.582;2023-05-14T11:59:50;101749.72;;;22.08;33.85
73457;BME280;61691;53.072;6.582;2023-05-14T12:02:21;101764.03;;;22.23;34.46
73457;BME280;61691;53.072;6.582;2023-05-14T12:04:50;101729.13;;;22.21;34.72
73457;BME280;61691;53.072;6.582;2023-05-14T12:07:19;101770.44;;;22.72;34.29
73457;BME280;61691;53.072;6.582;2023-05-14T12:09:47;101763.13;;;22.88;33.21
73457;BME280;61691;53.072;6.582;2023-05-14T12:12:18;101768.47;;;22.81;30.75
73457;BME280;61691;53.072;6.582;2023-05-14T12:14:45;101755.34;;;22.63;30.53
73457;BME280;61691;53.072;6.582;2023-05-14T12:17:17;101736.31;;;22.50;30.78
73457;BME280;61691;53.072;6.582;2023-05-14T12:19:47;101766.63;;;22.82;31.24
73457;BME280;61691;53.072;6.582;2023-05-14T12:22:16;101761.09;;;22.90;30.97
73457;BME280;61691;53.072;6.582;2023-05-14T12:24:51;101758.25;;;22.98;31.33
73457;BME280;61691;53.072;6.582;2023-05-14T12:27:21;101758.78;;;23.08;31.62
73457;BME280;61691;53.072;6.582;2023-05-14T12:29:59;101746.78;;;23.17;31.49
73457;BME280;61691;53.072;6.582;2023-05-14T12:32:46;101751.00;;;23.26;31.76
73457;BME280;61691;53.072;6.582;2023-05-14T12:35:14;101747.66;;;23.24;31.89
73457;BME280;61691;53.072;6.582;2023-05-14T12:37:41;101751.28;;;23.10;31.65
73457;BME280;61691;53.072;6.582;2023-05-14T12:40:08;101753.09;;;23.03;31.67
73457;BME280;61691;53.072;6.582;2023-05-14T12:42:36;101750.00;;;23.06;30.95
73457;BME280;61691;53.072;6.582;2023-05-14T12:45:03;101727.81;;;22.89;30.86
73457;BME280;61691;53.072;6.582;2023-05-14T12:47:33;101691.06;;;22.73;31.08
73457;BME280;61691;53.072;6.582;2023-05-14T12:50:00;101735.66;;;23.05;30.42
73457;BME280;61691;53.072;6.582;2023-05-14T12:52:26;101749.22;;;23.12;30.36
73457;BME280;61691;53.072;6.582;2023-05-14T12:55:05;101679.78;;;22.70;29.71
73457;BME280;61691;53.072;6.582;2023-05-14T12:57:32;101727.06;;;23.02;29.31
73457;BME280;61691;53.072;6.582;2023-05-14T13:00:01;101739.69;;;23.16;29.41
73457;BME280;61691;53.072;6.582;2023-05-14T13:02:33;101717.44;;;23.14;29.52
73457;BME280;61691;53.072;6.582;2023-05-14T13:05:09;101726.00;;;23.24;29.20
73457;BME280;61691;53.072;6.582;2023-05-14T13:07:36;101732.25;;;23.25;29.36